createdAt,value
2022-11-08T00:00:28.481Z,69.78
2022-11-08T00:01:28.424Z,69.35
2022-11-08T00:02:28.415Z,68.84
2022-11-08T00:03:28.408Z,68.54
2022-11-08T00:04:28.393Z,68.81
2022-11-08T00:05:28.384Z,68.51
2022-11-08T00:06:28.399Z,68.61
2022-11-08T00:07:28.360Z,67.9
2022-11-08T00:08:28.353Z,68.3
2022-11-08T00:09:28.341Z,67.47
2022-11-08T00:10:28.333Z,67.54
2022-11-08T00:11:28.318Z,66.93
2022-11-08T00:12:28.306Z,68.21
2022-11-08T00:13:28.302Z,68.41
2022-11-08T00:14:28.290Z,69.24
2022-11-08T00:15:28.275Z,69.24
2022-11-08T00:16:28.265Z,68.17
2022-11-08T00:17:28.257Z,68.21
2022-11-08T00:18:28.243Z,68.41
2022-11-08T00:19:28.241Z,68.54
2022-11-08T00:20:28.229Z,68.84
2022-11-08T00:21:28.217Z,68.44
2022-11-08T00:22:28.206Z,68.95
2022-11-08T00:23:28.201Z,68.71
2022-11-08T00:24:28.179Z,68.54
2022-11-08T00:25:28.170Z,68.84
2022-11-08T00:26:28.184Z,68.95
2022-11-08T00:27:28.153Z,68.84
2022-11-08T00:28:28.138Z,68.95
2022-11-08T00:29:28.132Z,69.24
2022-11-08T00:30:28.118Z,68.3
2022-11-08T00:31:28.109Z,69.24
2022-11-08T00:32:28.097Z,69.58
2022-11-08T00:33:28.090Z,69.89
2022-11-08T00:34:28.121Z,70.19
2022-11-08T00:35:28.064Z,69.92
2022-11-08T00:36:28.058Z,70.76
2022-11-08T00:37:28.045Z,70.73
2022-11-08T00:38:28.038Z,70.93
2022-11-08T00:39:28.046Z,70.42
2022-11-08T00:40:28.012Z,71.06
2022-11-08T00:41:28.005Z,70.62
2022-11-08T00:42:27.994Z,70.62
2022-11-08T00:43:27.981Z,70.12
2022-11-08T00:44:27.983Z,70.19
2022-11-08T00:45:27.978Z,69.98
2022-11-08T00:46:27.953Z,69.48
2022-11-08T00:47:27.939Z,69.45
2022-11-08T00:48:27.967Z,69.45
2022-11-08T00:49:27.915Z,69.48
2022-11-08T00:50:27.908Z,69.18
2022-11-08T00:51:27.900Z,69.58
2022-11-08T00:52:27.895Z,69.38
2022-11-08T00:53:27.890Z,69.58
2022-11-08T00:54:27.862Z,68.77
2022-11-08T00:55:27.853Z,69.24
2022-11-08T00:56:27.842Z,68.98
2022-11-08T00:57:27.846Z,69.04
2022-11-08T00:58:27.822Z,69.48
2022-11-08T00:59:27.812Z,69.58
2022-11-08T01:00:27.799Z,70.12
2022-11-08T01:01:27.792Z,69.92
2022-11-08T01:02:27.780Z,70.12
2022-11-08T01:03:27.783Z,70.22
2022-11-08T01:04:27.768Z,69.71
2022-11-08T01:05:27.748Z,69.92
2022-11-08T01:06:27.739Z,70.22
2022-11-08T01:07:27.731Z,70.02
2022-11-08T01:08:27.730Z,69.71
2022-11-08T01:09:27.717Z,70.32
2022-11-08T01:10:27.699Z,70.66
2022-11-08T01:11:27.686Z,70.46
2022-11-08T01:12:27.674Z,70.76
2022-11-08T01:13:27.662Z,70.86
2022-11-08T01:14:27.649Z,71.53
2022-11-08T01:15:27.648Z,71.2
2022-11-08T01:16:27.627Z,71
2022-11-08T01:17:27.619Z,71
2022-11-08T01:18:27.606Z,70.66
2022-11-08T01:19:27.599Z,70.76
2022-11-08T01:20:27.584Z,70.66
2022-11-08T01:21:27.587Z,70.05
2022-11-08T01:22:27.570Z,70.46
2022-11-08T01:23:27.551Z,70.69
2022-11-08T01:24:27.544Z,71.4
2022-11-08T01:25:27.543Z,71.53
2022-11-08T01:26:27.535Z,71.8
2022-11-08T01:27:27.509Z,71.4
2022-11-08T01:28:27.498Z,71.94
2022-11-08T01:29:27.490Z,72.04
2022-11-08T01:30:27.486Z,72.04
2022-11-08T01:31:27.469Z,71.64
2022-11-08T01:32:27.459Z,71.94
2022-11-08T01:33:27.453Z,72.14
2022-11-08T01:34:27.451Z,71.94
2022-11-08T01:35:27.425Z,72.04
2022-11-08T01:36:27.421Z,72.28
2022-11-08T01:37:27.409Z,72.28
2022-11-08T01:38:27.402Z,71.94
2022-11-08T01:39:27.384Z,71.64
2022-11-08T01:40:27.387Z,71.84
2022-11-08T01:41:27.377Z,71.73
2022-11-08T01:42:27.350Z,71.73
2022-11-08T01:43:27.343Z,72.14
2022-11-08T01:44:27.332Z,72.17
2022-11-08T01:45:27.316Z,72.38
2022-11-08T01:46:27.308Z,72.28
2022-11-08T01:47:27.298Z,72.04
2022-11-08T01:48:27.302Z,72.17
2022-11-08T01:49:27.287Z,72.58
2022-11-08T01:50:27.262Z,71.53
2022-11-08T01:51:27.254Z,71.97
2022-11-08T01:52:27.247Z,71.73
2022-11-08T01:53:27.251Z,72.17
2022-11-08T01:54:27.225Z,72.38
2022-11-08T01:55:27.217Z,72.28
2022-11-08T01:56:27.199Z,72.38
2022-11-08T01:57:27.191Z,72.68
2022-11-08T01:58:27.181Z,72.38
2022-11-08T01:59:27.170Z,72.28
2022-11-08T02:00:27.169Z,71.97
2022-11-08T02:01:27.163Z,72.08
2022-11-08T02:02:27.136Z,71.77
2022-11-08T02:03:27.123Z,71.57
2022-11-08T02:04:27.115Z,71.97
2022-11-08T02:05:27.102Z,71.77
2022-11-08T04:10:13.334Z,72.45
2022-11-08T04:10:35.672Z,72.65
2022-11-08T04:11:35.658Z,72.24
2022-11-08T04:12:35.655Z,72.11
2022-11-08T04:13:35.635Z,71.8
2022-11-08T04:14:35.631Z,72.11
2022-11-08T04:15:35.622Z,71.7
2022-11-08T04:16:35.611Z,72.01
2022-11-08T04:17:35.590Z,71.91
2022-11-08T04:18:35.584Z,71.91
2022-11-08T04:19:35.572Z,71.4
2022-11-08T04:20:35.564Z,71.91
2022-11-08T04:21:35.551Z,72.21
2022-11-08T04:22:35.535Z,71.91
2022-11-08T04:23:35.533Z,71.8
2022-11-08T04:24:35.532Z,71.97
2022-11-08T04:25:35.505Z,70.62
2022-11-08T04:26:35.503Z,70.09
2022-11-08T04:27:35.489Z,69.78
2022-11-08T04:28:35.475Z,69.48
2022-11-08T04:29:35.467Z,69.98
2022-11-08T04:30:35.459Z,70.52
2022-11-08T04:31:35.441Z,70.32
2022-11-08T04:32:35.436Z,70.73
2022-11-08T04:33:35.422Z,70.52
2022-11-08T04:34:35.413Z,70.62
2022-11-08T04:35:35.429Z,70.49
2022-11-08T04:36:35.425Z,69.98
2022-11-08T04:37:35.382Z,70.02
2022-11-08T04:38:35.368Z,70.62
2022-11-08T04:39:35.379Z,70.42
2022-11-08T04:40:35.344Z,70.73
2022-11-08T04:41:35.336Z,70.73
2022-11-08T04:42:35.324Z,70.73
2022-11-08T04:43:35.314Z,70.73
2022-11-08T04:44:35.305Z,70.83
2022-11-08T04:45:35.301Z,70.18
2022-11-08T04:46:35.288Z,69.48
2022-11-08T04:47:35.272Z,69.27
2022-11-08T04:48:35.263Z,69.34
2022-11-08T04:49:35.261Z,69.14
2022-11-08T04:50:35.248Z,69.14
2022-11-08T04:51:35.230Z,69.14
2022-11-08T04:52:35.216Z,69.04
2022-11-08T04:53:35.218Z,69.38
2022-11-08T04:54:35.190Z,68.57
2022-11-08T04:55:35.183Z,66.16
2022-11-08T04:56:35.175Z,65.32
2022-11-08T04:57:35.162Z,65.01
2022-11-08T04:58:35.149Z,64.61
2022-11-08T04:59:35.140Z,64.18
2022-11-08T05:00:35.127Z,63.65
2022-11-08T05:01:35.117Z,63.34
2022-11-08T05:02:35.109Z,63.65
2022-11-08T05:03:35.096Z,62.94
2022-11-08T05:04:35.093Z,62.3
2022-11-08T05:05:35.075Z,62.3
2022-11-08T05:06:35.068Z,63.57
2022-11-08T05:07:35.055Z,64.64
2022-11-08T05:08:35.039Z,64.75
2022-11-08T05:09:35.041Z,66.55
2022-11-08T05:10:35.040Z,68.33
2022-11-08T05:11:35.027Z,67.66
2022-11-08T05:12:35.037Z,69.31
2022-11-08T05:13:34.985Z,70.25
2022-11-08T05:14:34.974Z,72.21
2022-11-08T05:15:34.968Z,72.24
2022-11-08T05:16:34.968Z,72.68
2022-11-08T05:17:34.941Z,73.7
2022-11-08T05:18:34.931Z,74.04
2022-11-08T05:19:34.931Z,74.1
2022-11-08T05:20:34.910Z,73.9
2022-11-08T05:21:34.900Z,73.56
2022-11-08T05:22:34.887Z,73.16
2022-11-08T05:23:34.879Z,72.96
2022-11-08T05:24:34.867Z,72.75
2022-11-08T05:25:34.856Z,73.16
2022-11-08T05:26:34.850Z,73.39
2022-11-08T05:27:34.854Z,73.6
2022-11-08T05:28:34.824Z,73.8
2022-11-08T05:29:34.816Z,74
2022-11-08T05:30:34.811Z,74.44
2022-11-08T05:31:34.793Z,74.98
2022-11-08T05:32:34.786Z,74.74
2022-11-08T05:33:34.774Z,74.44
2022-11-08T05:34:34.764Z,74.21
2022-11-08T05:35:34.756Z,72.38
2022-11-08T05:36:34.742Z,71.3
2022-11-08T05:37:34.736Z,69.55
2022-11-08T05:38:34.724Z,68.77
2022-11-08T05:39:34.709Z,68.27
2022-11-08T05:40:34.696Z,66.82
2022-11-08T05:41:34.681Z,67.69
2022-11-08T05:42:34.671Z,69.04
2022-11-08T05:43:34.663Z,69.71
2022-11-08T05:44:34.668Z,70.39
2022-11-08T05:45:34.640Z,68.71
2022-11-08T05:46:34.640Z,68.6
2022-11-08T05:47:34.617Z,67.23
2022-11-08T05:48:34.609Z,66.49
2022-11-08T05:49:34.597Z,66.32
2022-11-08T05:50:34.586Z,66.52
2022-11-08T05:51:34.580Z,66.02
2022-11-08T05:52:34.561Z,67.02
2022-11-08T05:53:34.560Z,66.32
2022-11-08T05:54:34.544Z,66.96
2022-11-08T05:55:34.533Z,66.72
2022-11-08T05:56:34.523Z,66.55
2022-11-08T05:57:34.524Z,66.96
2022-11-08T05:58:34.500Z,67.6
2022-11-08T05:59:34.492Z,68.67
2022-11-08T06:00:34.484Z,70.29
2022-11-08T06:01:34.479Z,70.12
2022-11-08T06:02:34.457Z,70.02
2022-11-08T06:03:34.449Z,69.18
2022-11-08T06:04:34.438Z,68.87
2022-11-08T06:05:34.438Z,70.36
2022-11-08T06:06:34.413Z,70.09
2022-11-08T06:07:34.407Z,69.18
2022-11-08T06:08:34.394Z,70.15
2022-11-08T06:09:34.430Z,70.86
2022-11-08T06:10:34.413Z,70.32
2022-11-08T06:11:34.362Z,69.61
2022-11-08T06:12:34.361Z,69.58
2022-11-08T06:13:34.341Z,69.21
2022-11-08T06:14:34.326Z,70.02
2022-11-08T06:15:34.326Z,69.92
2022-11-08T06:16:34.305Z,69.74
2022-11-08T06:17:34.299Z,70.86
2022-11-08T06:18:34.285Z,70.52
2022-11-08T06:19:34.276Z,70.36
2022-11-08T06:20:34.263Z,70.02
2022-11-08T06:21:34.269Z,69.04
2022-11-08T06:22:34.249Z,68.4
2022-11-08T06:23:34.232Z,68
2022-11-08T06:24:34.226Z,67.8
2022-11-08T06:25:34.209Z,67.16
2022-11-08T06:26:34.203Z,66.82
2022-11-08T06:27:34.188Z,66.55
2022-11-08T06:28:34.189Z,66.25
2022-11-08T06:29:34.171Z,67.49
2022-11-08T06:30:34.156Z,67.9
2022-11-08T06:31:34.152Z,68.33
2022-11-08T06:32:34.140Z,68.03
2022-11-08T06:33:34.132Z,67.39
2022-11-08T06:34:34.117Z,67.8
2022-11-08T06:35:34.105Z,68.13
2022-11-08T06:36:34.096Z,67.39
2022-11-08T06:37:34.086Z,67.36
2022-11-08T06:38:34.075Z,66.52
2022-11-08T06:39:34.061Z,67.63
2022-11-08T06:40:34.049Z,69.98
2022-11-08T06:41:34.057Z,70.69
2022-11-08T06:42:34.035Z,71.94
2022-11-08T06:43:34.016Z,72.17
2022-11-08T06:44:34.015Z,73.22
2022-11-08T06:45:33.996Z,73.93
2022-11-08T06:46:33.995Z,73.43
2022-11-08T06:47:33.973Z,73.77
2022-11-08T06:48:33.971Z,74.38
2022-11-08T06:49:33.959Z,74.14
2022-11-08T06:50:33.950Z,73.73
2022-11-08T06:51:33.938Z,74.24
2022-11-08T06:52:33.929Z,73.87
2022-11-08T06:53:33.913Z,74.34
2022-11-08T06:54:33.903Z,72.28
2022-11-08T06:55:33.895Z,70.83
2022-11-08T06:56:33.885Z,69.89
2022-11-08T06:57:33.869Z,68.74
2022-11-08T06:58:33.858Z,69.27
2022-11-08T06:59:33.850Z,68.97
2022-11-08T07:00:33.840Z,69.27
2022-11-08T07:01:33.829Z,72.04
2022-11-08T07:02:33.819Z,73.12
2022-11-08T07:03:33.805Z,73.53
2022-11-08T07:04:33.795Z,74.71
2022-11-08T07:05:33.822Z,75.83
2022-11-08T07:06:33.778Z,76.28
2022-11-08T07:07:33.761Z,76.72
2022-11-08T07:08:33.749Z,77.22
2022-11-08T07:09:33.741Z,76.88
2022-11-08T07:10:33.732Z,76.24
2022-11-08T07:11:33.729Z,75.83
2022-11-08T07:12:33.710Z,75.39
2022-11-08T07:13:33.704Z,74.1
2022-11-08T07:14:33.690Z,73.16
2022-11-08T07:15:33.677Z,73.39
2022-11-08T07:16:33.669Z,74.14
2022-11-08T07:17:33.658Z,74.98
2022-11-08T07:18:33.649Z,75.12
2022-11-08T07:19:33.636Z,74.88
2022-11-08T07:20:33.625Z,75.73
2022-11-08T07:21:33.613Z,76.03
2022-11-08T07:22:33.610Z,75.97
2022-11-08T07:23:33.611Z,76.68
2022-11-08T07:24:33.613Z,76.64
2022-11-08T07:25:33.592Z,76.64
2022-11-08T07:26:33.561Z,76.03
2022-11-08T07:27:33.547Z,75.63
2022-11-08T07:28:33.543Z,75.39
2022-11-08T07:29:33.531Z,75.59
2022-11-08T07:30:33.521Z,75.79
2022-11-08T07:31:33.515Z,75.22
2022-11-08T07:32:33.501Z,76.34
2022-11-08T07:33:33.506Z,75.79
2022-11-08T07:34:33.497Z,75.05
2022-11-08T07:35:33.492Z,74.41
2022-11-08T07:36:33.460Z,73.66
2022-11-08T07:37:33.443Z,73.49
2022-11-08T07:38:33.449Z,73.66
2022-11-08T07:39:33.427Z,72.41
2022-11-08T07:40:33.409Z,72.75
2022-11-08T07:41:33.404Z,72.61
2022-11-08T07:42:33.413Z,72.92
2022-11-08T07:43:33.393Z,71.77
2022-11-08T07:44:33.371Z,71.88
2022-11-08T07:45:33.370Z,71.88
2022-11-08T07:46:33.360Z,71.13
2022-11-08T07:47:33.332Z,71.57
2022-11-08T07:48:33.326Z,71.77
2022-11-08T07:49:33.316Z,71.97
2022-11-08T07:50:33.304Z,70.93
2022-11-08T07:51:33.301Z,70.73
2022-11-08T07:52:33.291Z,71.2
2022-11-08T07:53:33.280Z,70.83
2022-11-08T07:54:33.261Z,71.23
2022-11-08T07:55:33.248Z,71.6
2022-11-08T07:56:33.244Z,73.05
2022-11-08T07:57:33.226Z,73.25
2022-11-08T07:58:33.373Z,73.73
2022-11-08T07:59:33.210Z,73.32
2022-11-08T08:00:33.197Z,73.09
2022-11-08T08:01:33.188Z,72.68
2022-11-08T08:02:33.172Z,72.17
2022-11-08T08:03:33.165Z,71.97
2022-11-08T08:04:33.153Z,72.04
2022-11-08T08:05:33.145Z,71.73
2022-11-08T08:06:33.132Z,71.09
2022-11-08T08:07:33.123Z,70.89
2022-11-08T08:08:33.116Z,71.33
2022-11-08T08:09:33.105Z,70.86
2022-11-08T08:10:33.089Z,71.06
2022-11-08T08:11:33.091Z,70.29
2022-11-08T08:12:33.071Z,71.53
2022-11-08T08:13:33.070Z,72.11
2022-11-08T08:14:33.049Z,71.3
2022-11-08T08:15:33.038Z,71.8
2022-11-08T08:16:33.026Z,70.56
2022-11-08T08:17:33.014Z,70.66
2022-11-08T08:18:33.005Z,69.82
2022-11-08T08:19:33.002Z,70.02
2022-11-08T08:20:32.987Z,69.78
2022-11-08T08:21:32.977Z,69.42
2022-11-08T08:22:32.960Z,70.02
2022-11-08T08:23:32.947Z,69.38
2022-11-08T08:24:32.975Z,69.82
2022-11-08T08:25:32.928Z,70.22
2022-11-08T08:26:32.914Z,70.39
2022-11-08T08:27:32.913Z,70.22
2022-11-08T08:28:32.899Z,70.46
2022-11-08T08:29:32.887Z,69.78
2022-11-08T08:30:32.942Z,69.58
2022-11-08T08:31:32.901Z,69.65
2022-11-08T08:32:32.858Z,68.95
2022-11-08T08:33:32.839Z,69.38
2022-11-08T08:34:32.829Z,69.48
2022-11-08T08:35:32.818Z,69.78
2022-11-08T08:36:32.809Z,68.98
2022-11-08T08:37:32.795Z,70.22
2022-11-08T08:38:32.783Z,70.32
2022-11-08T08:39:32.775Z,69.58
2022-11-08T08:40:32.762Z,68.81
2022-11-08T08:41:32.757Z,67.77
2022-11-08T08:42:32.750Z,67.67
2022-11-08T08:43:32.729Z,67.47
2022-11-08T08:44:32.729Z,67.36
2022-11-08T08:45:33.738Z,67.03
2022-11-08T08:46:32.709Z,66.19
2022-11-08T08:47:32.736Z,66.42
2022-11-08T08:48:32.694Z,66.86
2022-11-08T08:49:32.671Z,66.73
2022-11-08T08:50:32.662Z,66.09
2022-11-08T08:51:32.656Z,66.22
2022-11-08T08:52:32.664Z,65.79
2022-11-08T08:53:32.634Z,65.56
2022-11-08T08:54:32.616Z,65.66
2022-11-08T08:55:32.621Z,65.89
2022-11-08T08:56:32.587Z,65.56
2022-11-08T08:57:32.585Z,64.16
2022-11-08T08:58:32.570Z,63.99
2022-11-08T09:01:32.536Z,64.59
2022-11-08T09:02:32.527Z,65.06
2022-11-08T09:03:32.511Z,65.02
2022-11-08T09:04:32.503Z,64.62
2022-11-08T09:05:32.489Z,64.22
2022-11-08T09:06:32.595Z,63.42
2022-11-08T09:07:32.477Z,61.47
2022-11-08T09:08:32.462Z,0
2022-11-08T09:09:32.479Z,61.89
2022-11-08T09:10:32.436Z,61.99
2022-11-08T09:11:32.451Z,60.29
2022-11-08T09:12:32.426Z,59.79
2022-11-08T09:13:32.408Z,59.79
2022-11-08T09:14:32.395Z,58.6
2022-11-08T09:15:32.430Z,57.7
2022-11-08T09:16:32.379Z,57.06
2022-11-08T09:17:32.397Z,57.46
2022-11-08T09:18:32.412Z,56.66
2022-11-08T09:19:32.344Z,57.59
2022-11-08T09:20:32.349Z,57.37
2022-11-08T09:21:32.323Z,57.26
2022-11-08T09:22:32.315Z,57.92
2022-11-08T09:23:32.324Z,58.4
2022-11-08T09:24:32.296Z,58.62
2022-11-08T09:25:32.281Z,58.73
2022-11-08T09:26:32.267Z,57.97
2022-11-08T09:27:32.253Z,58.29
2022-11-08T09:28:32.247Z,57.9
2022-11-08T09:29:32.231Z,57.9
2022-11-08T09:30:32.222Z,57.67
2022-11-08T09:31:32.217Z,57.46
2022-11-08T09:32:32.240Z,58.02
2022-11-08T09:33:32.189Z,58.33
2022-11-08T09:34:32.181Z,58.73
2022-11-08T09:35:32.224Z,58.53
2022-11-08T09:36:32.155Z,59.06
2022-11-08T09:37:32.166Z,59.56
2022-11-08T09:38:32.139Z,58.93
2022-11-08T09:39:32.123Z,58.42
2022-11-08T09:40:32.108Z,58.73
2022-11-08T09:41:32.099Z,58.62
2022-11-08T09:42:32.094Z,59.13
2022-11-08T09:43:32.092Z,58.29
2022-11-08T09:44:32.082Z,57.87
2022-11-08T09:45:32.061Z,58.2
2022-11-08T09:46:32.046Z,59.56
2022-11-08T09:47:32.030Z,59.13
2022-11-08T09:48:32.022Z,58.4
2022-11-08T09:49:32.016Z,57.39
2022-11-08T09:50:32.001Z,57.9
2022-11-08T09:51:32.003Z,58
2022-11-08T09:52:31.980Z,57.57
2022-11-08T09:53:31.965Z,57.77
2022-11-08T09:54:31.959Z,57.24
2022-11-08T09:55:31.965Z,57.04
2022-11-08T09:56:31.937Z,57.01
2022-11-08T09:57:31.918Z,56.41
2022-11-08T09:58:31.943Z,56.51
2022-11-08T09:59:31.897Z,56.46
2022-11-08T10:00:31.889Z,57.29
2022-11-08T10:01:31.886Z,57.72
2022-11-08T10:02:31.866Z,58.09
2022-11-08T10:03:31.947Z,57.14
2022-11-08T10:04:31.868Z,56.93
2022-11-08T10:05:31.845Z,57.26
2022-11-08T10:06:31.895Z,57.59
2022-11-08T10:07:31.821Z,57.26
2022-11-08T10:08:31.817Z,57.46
2022-11-08T10:09:31.845Z,57.7
2022-11-08T10:10:31.796Z,57.46
2022-11-08T10:11:31.765Z,56.93
2022-11-08T10:12:31.754Z,55.68
2022-11-08T10:13:31.755Z,55.58
2022-11-08T10:14:31.735Z,55.05
2022-11-08T10:15:31.720Z,54.93
2022-11-08T10:16:31.735Z,54.43
2022-11-08T10:17:31.705Z,54.12
2022-11-08T10:18:31.692Z,55.25
2022-11-08T10:19:31.679Z,54.75
2022-11-08T10:20:31.672Z,55.47
2022-11-08T10:21:31.662Z,55.3
2022-11-08T10:22:31.654Z,55.35
2022-11-08T10:23:31.640Z,54.85
2022-11-08T10:24:31.643Z,54.72
2022-11-08T10:25:31.620Z,55.4
2022-11-08T10:26:31.606Z,56.13
2022-11-08T10:27:31.599Z,56.86
2022-11-08T10:28:31.580Z,57.14
2022-11-08T10:29:31.576Z,55.88
2022-11-08T10:30:31.560Z,55.58
2022-11-08T10:31:31.550Z,55.98
2022-11-08T10:32:31.560Z,0
2022-11-08T10:33:31.531Z,0
2022-11-08T10:34:31.525Z,0
2022-11-08T10:35:31.516Z,0
2022-11-08T10:36:31.499Z,56.84
2022-11-08T10:37:31.489Z,54.75
2022-11-08T10:38:31.520Z,54.3
2022-11-08T10:39:31.476Z,53.8
2022-11-08T10:40:31.464Z,54.22
2022-11-08T10:41:31.478Z,54.65
2022-11-08T10:42:31.536Z,54.32
2022-11-08T10:43:31.432Z,54.22
2022-11-08T10:44:31.415Z,54.55
2022-11-08T10:45:31.409Z,0
2022-11-08T10:46:31.397Z,0
2022-11-08T10:47:31.384Z,0
2022-11-08T10:48:31.369Z,59.19
2022-11-08T10:49:31.363Z,59.48
2022-11-08T10:50:31.346Z,59.59
2022-11-08T10:51:31.335Z,59.52
2022-11-08T10:52:31.323Z,60.02
2022-11-08T10:53:31.355Z,59.19
2022-11-08T10:54:31.336Z,59.28
2022-11-08T10:55:31.377Z,59.59
2022-11-08T10:56:31.285Z,59.26
2022-11-08T10:57:31.288Z,59.16
2022-11-08T10:58:31.284Z,59.48
2022-11-08T10:59:31.249Z,58.98
2022-11-08T11:00:31.237Z,59.28
2022-11-08T11:01:31.225Z,59.42
2022-11-08T11:02:31.220Z,59.72
2022-11-08T11:03:31.207Z,60.02
2022-11-08T11:04:31.194Z,60.02
2022-11-08T11:05:31.185Z,59.82
2022-11-08T11:06:31.174Z,60.02
2022-11-08T11:07:31.166Z,59.82
2022-11-08T11:08:31.159Z,59.75
2022-11-08T11:09:31.141Z,59.92
2022-11-08T11:10:31.130Z,59.82
2022-11-08T11:11:31.123Z,0
2022-11-08T11:12:31.115Z,59.48
2022-11-08T11:13:31.100Z,59.48
2022-11-08T11:14:31.187Z,0
2022-11-08T11:15:31.078Z,0
2022-11-08T11:16:31.071Z,0
2022-11-08T11:17:31.058Z,0
2022-11-08T11:18:31.046Z,59.26
2022-11-08T11:19:31.034Z,0
2022-11-08T11:20:31.027Z,0
2022-11-08T11:21:31.014Z,0
2022-11-08T11:22:31.006Z,0
2022-11-08T11:23:31.001Z,0
2022-11-08T11:24:30.987Z,59.48
2022-11-08T11:25:30.976Z,58.33
2022-11-08T11:26:30.969Z,58.55
2022-11-08T11:27:30.953Z,58.42
2022-11-08T11:28:30.934Z,57.79
2022-11-08T11:29:30.925Z,57.79
2022-11-08T11:30:30.920Z,0
2022-11-08T11:31:30.903Z,0
2022-11-08T11:32:30.973Z,58.42
2022-11-08T11:33:30.896Z,57.46
2022-11-08T11:34:30.880Z,56.76
2022-11-08T11:35:30.863Z,57.67
2022-11-08T11:36:30.881Z,56.18
2022-11-08T11:37:30.849Z,54.95
2022-11-08T11:38:30.828Z,54.52
2022-11-08T11:39:30.820Z,53.69
2022-11-08T11:40:30.807Z,53.8
2022-11-08T11:41:30.804Z,53.57
2022-11-08T11:42:30.791Z,53.07
2022-11-08T11:43:30.783Z,52.52
2022-11-08T11:44:30.775Z,53.27
2022-11-08T11:45:30.782Z,53.92
2022-11-08T11:46:30.750Z,54.75
2022-11-08T11:47:30.738Z,55.05
2022-11-08T11:48:30.738Z,54.1
2022-11-08T11:49:30.723Z,53.37
2022-11-08T11:50:30.707Z,52.02
2022-11-08T11:51:30.718Z,52.12
2022-11-08T11:52:30.681Z,51.5
2022-11-08T11:53:30.671Z,52.34
2022-11-08T11:54:30.655Z,52.55
2022-11-08T11:55:30.649Z,53.39
2022-11-08T11:56:30.638Z,54.65
2022-11-08T11:57:30.627Z,55.28
2022-11-08T11:58:30.613Z,55.15
2022-11-08T11:59:30.606Z,55.18
2022-11-08T12:00:30.604Z,55.18
2022-11-08T12:01:30.579Z,55.4
2022-11-08T12:02:30.569Z,55.2
2022-11-08T12:03:30.568Z,0
2022-11-08T12:04:30.552Z,54.68
2022-11-08T12:05:30.537Z,54.77
2022-11-08T12:06:30.538Z,54.15
2022-11-08T12:07:30.564Z,54.05
2022-11-08T12:08:30.522Z,53.62
2022-11-08T12:09:30.493Z,53.59
2022-11-08T12:10:30.494Z,52.19
2022-11-08T12:11:30.475Z,53.12
2022-11-08T12:12:30.602Z,53.75
2022-11-08T12:13:30.459Z,53.85
2022-11-08T12:14:30.456Z,53.87
2022-11-08T12:15:30.431Z,54.27
2022-11-08T12:16:30.444Z,54.5
2022-11-08T12:17:30.409Z,54.63
2022-11-08T12:18:30.398Z,55.03
2022-11-08T12:19:30.388Z,55.26
2022-11-08T12:20:30.375Z,55.55
2022-11-08T12:21:30.369Z,55.76
2022-11-08T12:22:30.361Z,55.66
2022-11-08T12:23:30.352Z,55.68
2022-11-08T12:24:30.330Z,56.29
2022-11-08T12:25:30.323Z,56.19
2022-11-08T12:26:30.308Z,56.29
2022-11-08T12:27:30.300Z,56.59
2022-11-08T12:28:30.294Z,56.38
2022-11-08T12:29:30.283Z,56.82
2022-11-08T12:30:31.306Z,57.12
2022-11-08T12:31:30.267Z,57.12
2022-11-08T12:32:30.245Z,57.12
2022-11-08T12:33:30.238Z,57.12
2022-11-08T12:34:30.226Z,0
2022-11-08T12:35:30.236Z,0
2022-11-08T12:36:30.242Z,58.58
2022-11-08T12:37:30.204Z,58.38
2022-11-08T12:38:30.188Z,57.62
2022-11-08T12:39:30.211Z,57.42
2022-11-08T12:40:30.190Z,0
2022-11-08T12:41:30.147Z,58.48
2022-11-08T12:42:30.141Z,58.48
2022-11-08T12:43:30.135Z,57.72
2022-11-08T12:44:30.127Z,56.99
2022-11-08T12:45:30.105Z,57.19
2022-11-08T12:46:30.098Z,56.89
2022-11-08T12:47:30.087Z,56.46
2022-11-08T12:48:30.078Z,56.56
2022-11-08T12:49:30.074Z,56.16
2022-11-08T12:50:30.056Z,55.93
2022-11-08T12:51:30.065Z,56.89
2022-11-08T12:52:30.043Z,0
2022-11-08T12:53:30.039Z,57.75
2022-11-08T12:54:30.012Z,0
2022-11-08T12:55:29.998Z,0
2022-11-08T12:56:29.993Z,0
2022-11-08T12:57:29.976Z,58.71
2022-11-08T12:58:29.969Z,58.61
2022-11-08T12:59:29.958Z,58.61
2022-11-08T13:00:29.946Z,58.51
2022-11-08T13:01:29.934Z,58.31
2022-11-08T13:02:29.935Z,0
2022-11-08T13:03:29.937Z,58.28
2022-11-08T13:04:29.904Z,0
2022-11-08T13:05:29.985Z,0
2022-11-08T13:06:29.894Z,0
2022-11-08T13:07:29.872Z,0
2022-11-08T13:08:29.861Z,0
2022-11-08T13:09:29.850Z,57.24
2022-11-08T13:10:29.838Z,0
2022-11-08T13:11:29.824Z,0
2022-11-08T13:12:29.813Z,55.43
2022-11-08T13:13:29.810Z,53.67
2022-11-08T13:14:29.798Z,52.82
2022-11-08T13:15:29.785Z,51.67
2022-11-08T13:16:29.770Z,52.01
2022-11-08T13:17:29.811Z,52.09
2022-11-08T13:18:29.753Z,51.49
2022-11-08T13:19:29.741Z,52.32
2022-11-08T13:20:29.730Z,53.05
2022-11-08T13:21:29.742Z,52.29
2022-11-08T13:22:29.706Z,51.69
2022-11-08T13:23:29.696Z,52.39
2022-11-08T13:24:29.689Z,0
2022-11-08T13:25:29.674Z,0
2022-11-08T13:26:29.667Z,0
2022-11-08T13:27:29.655Z,0
2022-11-08T13:28:29.648Z,0
2022-11-08T13:29:29.630Z,0
2022-11-08T13:30:29.644Z,0
2022-11-08T13:31:29.616Z,0
2022-11-08T13:32:29.601Z,0
2022-11-08T13:33:29.589Z,0
2022-11-08T13:34:29.581Z,0
2022-11-08T13:35:29.579Z,0
2022-11-08T13:36:29.587Z,0
2022-11-08T13:37:29.545Z,0
2022-11-08T13:38:29.535Z,0
2022-11-08T13:39:29.523Z,0
2022-11-08T13:40:29.515Z,0
2022-11-08T13:41:29.503Z,0
2022-11-08T13:42:29.492Z,0
2022-11-08T13:43:29.488Z,0
2022-11-08T13:44:29.474Z,0
2022-11-08T13:45:29.464Z,0
2022-11-08T13:46:29.458Z,0
2022-11-08T13:47:29.450Z,0
2022-11-08T13:48:29.432Z,57.15
2022-11-08T13:49:29.452Z,56.31
2022-11-08T13:50:29.427Z,56.11
2022-11-08T13:51:29.396Z,56.11
2022-11-08T13:52:29.388Z,55.79
2022-11-08T13:53:29.378Z,55.48
2022-11-08T13:54:29.370Z,55.91
2022-11-08T13:55:29.353Z,0
2022-11-08T13:56:29.345Z,0
2022-11-08T13:57:29.337Z,0
2022-11-08T13:58:29.323Z,0
2022-11-08T13:59:29.310Z,0
2022-11-08T14:00:29.297Z,0
2022-11-08T14:01:29.290Z,0
2022-11-08T14:02:29.279Z,0
2022-11-08T14:03:29.265Z,0
2022-11-08T14:04:29.270Z,0
2022-11-08T14:05:29.245Z,0
2022-11-08T14:06:29.233Z,0
2022-11-08T14:07:29.242Z,0
2022-11-08T14:08:29.246Z,0
2022-11-08T14:09:29.202Z,0
2022-11-08T14:10:29.193Z,0
2022-11-08T14:11:29.198Z,0
2022-11-08T14:12:29.173Z,0
2022-11-08T14:13:29.162Z,57.24
2022-11-08T14:14:29.144Z,54.83
2022-11-08T14:15:29.140Z,53.17
2022-11-08T14:16:29.124Z,53.05
2022-11-08T14:17:29.111Z,52.94
2022-11-08T14:18:29.100Z,0
2022-11-08T14:19:29.090Z,54.2
2022-11-08T14:20:29.076Z,0
2022-11-08T14:21:29.066Z,0
2022-11-08T14:22:29.077Z,0
2022-11-08T14:23:29.062Z,0
2022-11-08T14:24:29.032Z,57.7
2022-11-08T14:25:29.050Z,56.95
2022-11-08T14:26:29.014Z,56.95
2022-11-08T14:27:29.078Z,56.74
2022-11-08T14:28:28.990Z,57.04
2022-11-08T14:29:28.976Z,56.74
2022-11-08T14:30:28.967Z,56.71
2022-11-08T14:31:28.967Z,56.62
2022-11-08T14:32:28.943Z,56.71
2022-11-08T14:33:28.934Z,0
2022-11-08T14:34:28.945Z,57.78
2022-11-08T14:35:28.930Z,57.15
2022-11-08T14:36:28.901Z,57.15
2022-11-08T14:37:28.894Z,57.24
2022-11-08T14:38:28.881Z,57.35
2022-11-08T14:39:28.868Z,57.57
2022-11-08T14:40:28.857Z,57.04
2022-11-08T14:41:28.862Z,57.24
2022-11-08T14:42:28.838Z,57.04
2022-11-08T14:43:28.822Z,57.45
2022-11-08T14:44:28.816Z,57.35
2022-11-08T14:45:28.813Z,57.04
2022-11-08T14:46:28.795Z,57.15
2022-11-08T14:47:28.792Z,56.92
2022-11-08T14:48:28.766Z,56.62
2022-11-08T14:49:28.763Z,56.71
2022-11-08T14:50:28.746Z,57.04
2022-11-08T14:51:28.736Z,56.95
2022-11-08T14:52:28.719Z,57.68
2022-11-08T14:53:28.726Z,57.45
2022-11-08T14:54:28.727Z,57.35
2022-11-08T14:55:28.689Z,57.45
2022-11-08T14:56:28.676Z,57.22
2022-11-08T14:57:28.667Z,57.35
2022-11-08T14:58:28.663Z,0
2022-11-08T14:59:28.643Z,0
2022-11-08T15:00:28.636Z,0
2022-11-08T15:01:28.622Z,0
2022-11-08T15:02:28.614Z,0
2022-11-08T15:03:28.606Z,0
2022-11-08T15:04:28.595Z,0
2022-11-08T15:05:28.588Z,0
2022-11-08T15:06:28.609Z,60.78
2022-11-08T15:07:28.569Z,60.48
2022-11-08T15:08:28.550Z,0
2022-11-08T15:09:28.572Z,0
2022-11-08T15:10:28.539Z,0
2022-11-08T15:11:28.514Z,60.58
2022-11-08T15:12:28.508Z,0